Time;durP1;ratioP1;P1;durP2;ratioP2;P2;SDS_P1;SDS_P2;PMS_P1;PMS_P2;Temp;Humidity;BMP_temperature;BMP_pressure;BME280_temperature;BME280_humidity;BME280_pressure;Samples;Min_cycle;Max_cycle;Signal;HPM_P1;HPM_P2
2023/07/03 00:53:52;;;;;;;1999.90;999.90;;;;;;;;;;5424143;23;20296;-73
2023/07/03 00:56:37;;;;;;;1999.90;999.90;;;;;;;;;;5021587;28;20299;-74
2023/07/03 00:59:23;;;;;;;1999.90;999.90;;;;;;;;;;5026731;28;20693;-70
2023/07/03 01:02:09;;;;;;;1999.90;999.90;;;;;;;;;;5025126;28;20210;-70
2023/07/03 01:04:58;;;;;;;1999.90;999.90;;;;;;;;;;5005902;28;20711;-71
2023/07/03 01:07:44;;;;;;;1999.90;999.90;;;;;;;;;;5010971;28;20343;-72
2023/07/03 01:10:31;;;;;;;1999.90;999.90;;;;;;;;;;5009634;28;20594;-70
2023/07/03 01:13:18;;;;;;;1999.90;999.90;;;;;;;;;;5001633;28;20834;-71
2023/07/03 01:16:05;;;;;;;1999.90;999.90;;;;;;;;;;5003627;28;20211;-69
2023/07/03 01:18:52;;;;;;;1999.90;999.90;;;;;;;;;;5012938;28;20269;-72
2023/07/03 01:21:41;;;;;;;1999.90;999.90;;;;;;;;;;5011601;28;20242;-70
2023/07/03 01:24:33;;;;;;;1999.90;999.90;;;;;;;;;;5003654;28;20598;-72
2023/07/03 01:27:20;;;;;;;1999.90;999.90;;;;;;;;;;5001934;28;20580;-72
2023/07/03 01:30:08;;;;;;;1999.90;999.90;;;;;;;;;;5003171;28;20309;-73
2023/07/03 01:32:55;;;;;;;1999.90;999.90;;;;;;;;;;5012739;28;20258;-68
2023/07/03 01:35:39;;;;;;;1999.90;999.90;;;;;;;;;;5004942;28;20287;-73
2023/07/03 01:38:25;;;;;;;1999.90;999.90;;;;;;;;;;5003594;28;20214;-72
2023/07/03 01:41:13;;;;;;;1999.90;999.90;;;;;;;;;;5011735;28;20211;-73
2023/07/03 01:43:58;;;;;;;1999.90;999.90;;;;;;;;;;5005655;28;20234;-71
2023/07/03 01:46:43;;;;;;;1999.90;999.90;;;;;;;;;;5007272;28;20221;-72
2023/07/03 01:49:28;;;;;;;1999.90;999.90;;;;;;;;;;5006988;28;20533;-70
2023/07/03 01:52:15;;;;;;;1999.90;999.90;;;;;;;;;;5007373;28;20350;-68
2023/07/03 01:55:04;;;;;;;1999.90;999.90;;;;;;;;;;5002272;28;20331;-72
2023/07/03 01:57:56;;;;;;;1999.90;999.90;;;;;;;;;;5006333;28;20287;-71
2023/07/03 02:00:43;;;;;;;1999.90;999.90;;;;;;;;;;5001323;28;20749;-72
2023/07/03 02:03:31;;;;;;;1999.90;999.90;;;;;;;;;;5008387;28;20239;-72
2023/07/03 02:06:20;;;;;;;1999.90;999.90;;;;;;;;;;5003067;28;20639;-72
2023/07/03 02:09:06;;;;;;;1999.90;999.90;;;;;;;;;;5003819;28;20203;-72
2023/07/03 02:11:52;;;;;;;1999.90;999.90;;;;;;;;;;5001765;28;20230;-74
2023/07/03 02:14:38;;;;;;;1999.90;999.90;;;;;;;;;;5001830;28;20696;-72
2023/07/03 02:17:24;;;;;;;1999.90;999.90;;;;;;;;;;4998038;28;20209;-71
2023/07/03 02:20:13;;;;;;;1999.90;999.90;;;;;;;;;;5002339;28;20211;-70
2023/07/03 02:22:58;;;;;;;1999.90;999.90;;;;;;;;;;5005614;28;20242;-72
2023/07/03 02:25:44;;;;;;;1999.90;999.90;;;;;;;;;;5003238;28;20211;-73
2023/07/03 02:28:29;;;;;;;1999.90;999.90;;;;;;;;;;5002762;28;20210;-73
2023/07/03 02:31:15;;;;;;;1999.90;999.90;;;;;;;;;;5000806;28;20223;-74
2023/07/03 02:34:00;;;;;;;1999.90;999.90;;;;;;;;;;5009264;28;20230;-74
2023/07/03 02:36:46;;;;;;;1999.90;999.90;;;;;;;;;;5007432;28;20207;-74
2023/07/03 02:39:32;;;;;;;1999.90;999.90;;;;;;;;;;5001634;28;20259;-74
2023/07/03 02:42:17;;;;;;;1999.90;999.90;;;;;;;;;;5015302;28;20202;-74
2023/07/03 02:45:03;;;;;;;1999.90;999.90;;;;;;;;;;5000805;28;20409;-73
2023/07/03 02:47:49;;;;;;;1999.90;999.90;;;;;;;;;;5003144;28;20210;-73
2023/07/03 02:50:34;;;;;;;1999.90;999.90;;;;;;;;;;4999993;28;20251;-70
2023/07/03 02:53:19;;;;;;;1999.90;999.90;;;;;;;;;;5006360;28;20438;-72
2023/07/03 02:56:05;;;;;;;1999.90;999.90;;;;;;;;;;5003653;28;20586;-69
2023/07/03 02:58:50;;;;;;;1999.90;999.90;;;;;;;;;;4999209;28;20574;-74
2023/07/03 03:01:36;;;;;;;1999.90;999.90;;;;;;;;;;5008186;28;20202;-70
2023/07/03 03:04:22;;;;;;;1999.90;999.90;;;;;;;;;;5010546;28;20234;-74
2023/07/03 03:07:07;;;;;;;1999.90;999.90;;;;;;;;;;5007019;28;20210;-74
2023/07/03 03:09:52;;;;;;;1999.90;999.90;;;;;;;;;;5001505;28;20705;-75
2023/07/03 03:12:37;;;;;;;1999.90;999.90;;;;;;;;;;5002294;28;20309;-74
2023/07/03 03:15:21;;;;;;;1999.90;999.90;;;;;;;;;;5006593;28;20213;-73
2023/07/03 03:18:06;;;;;;;1999.90;999.90;;;;;;;;;;5003996;28;20629;-74
2023/07/03 03:20:53;;;;;;;1999.90;999.90;;;;;;;;;;5009507;28;20330;-74
2023/07/03 03:23:37;;;;;;;1999.90;999.90;;;;;;;;;;5006142;28;20409;-74
2023/07/03 03:26:23;;;;;;;1999.90;999.90;;;;;;;;;;5013305;28;20588;-74
2023/07/03 03:29:08;;;;;;;1999.90;999.90;;;;;;;;;;5004760;28;20285;-74
2023/07/03 03:31:53;;;;;;;1999.90;999.90;;;;;;;;;;5006954;28;20277;-74
2023/07/03 03:34:38;;;;;;;1999.90;999.90;;;;;;;;;;5003863;28;20214;-74
2023/07/03 03:37:24;;;;;;;1999.90;999.90;;;;;;;;;;5015943;28;20355;-74
2023/07/03 03:40:09;;;;;;;1999.90;999.90;;;;;;;;;;5005765;28;20274;-75
2023/07/03 03:42:54;;;;;;;1999.90;999.90;;;;;;;;;;5008817;28;20550;-74
2023/07/03 03:45:39;;;;;;;1999.90;999.90;;;;;;;;;;4995179;28;20699;-75
2023/07/03 03:48:25;;;;;;;1999.90;999.90;;;;;;;;;;5000475;28;20222;-74
2023/07/03 03:51:10;;;;;;;1999.90;999.90;;;;;;;;;;4998103;28;20331;-75
2023/07/03 03:53:56;;;;;;;1999.90;999.90;;;;;;;;;;5011947;28;20289;-74
2023/07/03 03:56:40;;;;;;;1999.90;999.90;;;;;;;;;;5010980;28;20219;-74
2023/07/03 03:59:25;;;;;;;1999.90;999.90;;;;;;;;;;5008290;28;20209;-74
2023/07/03 04:02:10;;;;;;;1999.90;999.90;;;;;;;;;;5003873;28;20210;-75
2023/07/03 04:04:55;;;;;;;1999.90;999.90;;;;;;;;;;5011669;28;20214;-75
2023/07/03 04:07:40;;;;;;;1999.90;999.90;;;;;;;;;;5001265;28;20715;-73
2023/07/03 04:10:26;;;;;;;1999.90;999.90;;;;;;;;;;5013763;28;20304;-74
2023/07/03 04:13:12;;;;;;;1999.90;999.90;;;;;;;;;;5000303;28;20355;-74
2023/07/03 04:15:59;;;;;;;1999.90;999.90;;;;;;;;;;5004275;28;20203;-74
2023/07/03 04:18:44;;;;;;;1999.90;999.90;;;;;;;;;;5012490;28;20269;-74
2023/07/03 04:21:29;;;;;;;1999.90;999.90;;;;;;;;;;5006177;28;20234;-74
2023/07/03 04:24:14;;;;;;;1999.90;999.90;;;;;;;;;;5006404;28;20226;-74
2023/07/03 04:27:00;;;;;;;1999.90;999.90;;;;;;;;;;5011697;28;20331;-75
2023/07/03 04:29:45;;;;;;;1999.90;999.90;;;;;;;;;;5013907;28;20206;-75
2023/07/03 04:32:30;;;;;;;1999.90;999.90;;;;;;;;;;5003344;28;20231;-75
2023/07/03 04:35:15;;;;;;;1999.90;999.90;;;;;;;;;;5002299;28;20210;-75
2023/07/03 04:38:01;;;;;;;1999.90;999.90;;;;;;;;;;5003275;28;20413;-75
2023/07/03 04:40:46;;;;;;;1999.90;999.90;;;;;;;;;;5010143;28;21025;-73
2023/07/03 04:43:32;;;;;;;1999.90;999.90;;;;;;;;;;5013207;28;20319;-77
2023/07/03 04:46:18;;;;;;;1999.90;999.90;;;;;;;;;;5021370;28;20584;-75
2023/07/03 04:49:04;;;;;;;1999.90;999.90;;;;;;;;;;5007948;28;20218;-75
2023/07/03 04:51:51;;;;;;;1999.90;999.90;;;;;;;;;;5011593;28;20218;-77
2023/07/03 04:54:37;;;;;;;1999.90;999.90;;;;;;;;;;4997945;28;20292;-75
2023/07/03 04:57:22;;;;;;;1999.90;999.90;;;;;;;;;;5006826;28;20226;-75
2023/07/03 05:00:14;;;;;;;1999.90;999.90;;;;;;;;;;5014645;28;20209;-76
2023/07/03 05:03:00;;;;;;;1999.90;999.90;;;;;;;;;;5013686;28;20349;-71
2023/07/03 05:05:45;;;;;;;1999.90;999.90;;;;;;;;;;5016927;28;20337;-75
2023/07/03 05:08:30;;;;;;;1999.90;999.90;;;;;;;;;;5011190;28;20839;-76
2023/07/03 05:11:15;;;;;;;1999.90;999.90;;;;;;;;;;5011290;28;20227;-75
2023/07/03 05:14:00;;;;;;;1999.90;999.90;;;;;;;;;;4999998;28;20281;-74
2023/07/03 05:16:46;;;;;;;1999.90;999.90;;;;;;;;;;5006474;28;20779;-75
2023/07/03 05:19:31;;;;;;;1999.90;999.90;;;;;;;;;;5019092;28;20217;-77
2023/07/03 05:22:17;;;;;;;1999.90;999.90;;;;;;;;;;5006106;28;20206;-75
2023/07/03 05:25:02;;;;;;;1999.90;999.90;;;;;;;;;;5019372;28;20257;-74
2023/07/03 05:27:49;;;;;;;1999.90;999.90;;;;;;;;;;5006164;28;20202;-76
2023/07/03 05:30:34;;;;;;;1999.90;999.90;;;;;;;;;;5019754;28;20265;-75
2023/07/03 05:33:21;;;;;;;1999.90;999.90;;;;;;;;;;5008510;28;20404;-75
2023/07/03 05:36:06;;;;;;;1999.90;999.90;;;;;;;;;;5001435;28;20208;-75
2023/07/03 05:38:51;;;;;;;1999.90;999.90;;;;;;;;;;5010207;28;20210;-74
2023/07/03 05:41:36;;;;;;;1999.90;999.90;;;;;;;;;;5009186;28;20227;-75
2023/07/03 05:44:21;;;;;;;1999.90;999.90;;;;;;;;;;5008649;28;20317;-74
2023/07/03 05:47:06;;;;;;;1999.90;999.90;;;;;;;;;;5002700;28;20211;-75
2023/07/03 05:49:53;;;;;;;1999.90;999.90;;;;;;;;;;5004906;28;20704;-75
2023/07/03 05:52:40;;;;;;;1999.90;999.90;;;;;;;;;;5013500;28;20238;-75
2023/07/03 05:55:25;;;;;;;1999.90;999.90;;;;;;;;;;4999601;28;20208;-74
2023/07/03 05:58:11;;;;;;;1999.90;999.90;;;;;;;;;;5006708;28;20313;-75
2023/07/03 06:00:58;;;;;;;1999.90;999.90;;;;;;;;;;5013258;28;20211;-76
2023/07/03 06:03:44;;;;;;;1999.90;999.90;;;;;;;;;;4996184;28;20594;-74
2023/07/03 06:06:31;;;;;;;1999.90;999.90;;;;;;;;;;4997999;28;20258;-75
2023/07/03 06:09:16;;;;;;;1999.90;999.90;;;;;;;;;;5009901;28;20316;-75
2023/07/03 06:12:01;;;;;;;1999.90;999.90;;;;;;;;;;5011146;28;20352;-75
2023/07/03 06:14:46;;;;;;;1999.90;999.90;;;;;;;;;;5002113;28;20418;-75
2023/07/03 06:17:31;;;;;;;1999.90;999.90;;;;;;;;;;4993781;28;20286;-75
2023/07/03 06:20:16;;;;;;;1999.90;999.90;;;;;;;;;;4993498;28;20581;-75
2023/07/03 06:23:02;;;;;;;1999.90;999.90;;;;;;;;;;5005675;28;20234;-76
2023/07/03 06:25:47;;;;;;;1999.90;999.90;;;;;;;;;;5002855;28;20605;-75
2023/07/03 06:28:32;;;;;;;1999.90;999.90;;;;;;;;;;5007494;28;20210;-76
2023/07/03 06:31:17;;;;;;;1999.90;999.90;;;;;;;;;;5011883;28;20414;-76
2023/07/03 06:34:03;;;;;;;1999.90;999.90;;;;;;;;;;4994768;28;20231;-75
2023/07/03 06:36:49;;;;;;;1999.90;999.90;;;;;;;;;;5001971;28;20209;-77
2023/07/03 06:39:38;;;;;;;1999.90;999.90;;;;;;;;;;5000109;28;20678;-75
2023/07/03 06:42:23;;;;;;;1999.90;999.90;;;;;;;;;;5011115;28;20206;-75
2023/07/03 06:45:08;;;;;;;1999.90;999.90;;;;;;;;;;5007582;28;20206;-76
2023/07/03 06:47:53;;;;;;;1999.90;999.90;;;;;;;;;;5006602;28;20695;-75
2023/07/03 06:50:38;;;;;;;1999.90;999.90;;;;;;;;;;5003869;28;20581;-74
2023/07/03 06:53:23;;;;;;;1999.90;999.90;;;;;;;;;;5004728;28;20778;-76
2023/07/03 06:56:10;;;;;;;1999.90;999.90;;;;;;;;;;5005927;28;20218;-75
2023/07/03 06:58:55;;;;;;;1999.90;999.90;;;;;;;;;;4995969;28;20345;-75
2023/07/03 07:01:40;;;;;;;1999.90;999.90;;;;;;;;;;5002666;28;20641;-75
2023/07/03 07:04:27;;;;;;;1999.90;999.90;;;;;;;;;;5007968;28;20235;-75
2023/07/03 07:07:12;;;;;;;1999.90;999.90;;;;;;;;;;4998249;28;20266;-75
2023/07/03 07:09:57;;;;;;;1999.90;999.90;;;;;;;;;;5011547;28;20491;-75
2023/07/03 07:12:44;;;;;;;1999.90;999.90;;;;;;;;;;4994129;28;20240;-72
2023/07/03 07:15:29;;;;;;;1999.90;999.90;;;;;;;;;;5003594;28;20351;-76
2023/07/03 07:18:14;;;;;;;1999.90;999.90;;;;;;;;;;4998257;28;20212;-75
2023/07/03 07:21:00;;;;;;;1999.90;999.90;;;;;;;;;;5012067;28;20254;-76
2023/07/03 07:23:46;;;;;;;1999.90;999.90;;;;;;;;;;5011854;28;20713;-76
2023/07/03 07:26:33;;;;;;;1999.90;999.90;;;;;;;;;;5009252;28;20220;-80
2023/07/03 07:29:20;;;;;;;1999.90;999.90;;;;;;;;;;4993267;28;20215;-77
2023/07/03 07:32:05;;;;;;;1999.90;999.90;;;;;;;;;;4992297;28;20223;-77
2023/07/03 07:34:50;;;;;;;1999.90;999.90;;;;;;;;;;4992028;28;20684;-76
2023/07/03 07:37:35;;;;;;;1999.90;999.90;;;;;;;;;;5009078;28;20695;-77
2023/07/03 07:40:20;;;;;;;1999.90;999.90;;;;;;;;;;5005930;28;20238;-76
2023/07/03 07:43:05;;;;;;;1999.90;999.90;;;;;;;;;;5004543;28;20230;-77
2023/07/03 07:45:53;;;;;;;1999.90;999.90;;;;;;;;;;5011696;28;20217;-76
2023/07/03 07:48:38;;;;;;;1999.90;999.90;;;;;;;;;;5011527;28;20210;-77
2023/07/03 07:51:24;;;;;;;1999.90;999.90;;;;;;;;;;5011804;28;20214;-78
2023/07/03 07:54:09;;;;;;;1999.90;999.90;;;;;;;;;;5005209;28;20238;-79
2023/07/03 07:56:54;;;;;;;1999.90;999.90;;;;;;;;;;5011881;28;20509;-78
2023/07/03 07:59:38;;;;;;;1999.90;999.90;;;;;;;;;;5003979;28;20255;-78
2023/07/03 08:02:25;;;;;;;1999.90;999.90;;;;;;;;;;5000454;28;20218;-76
2023/07/03 08:05:10;;;;;;;1999.90;999.90;;;;;;;;;;4998179;28;21027;-78
2023/07/03 08:07:54;;;;;;;1999.90;999.90;;;;;;;;;;5009110;28;20210;-78
2023/07/03 08:10:40;;;;;;;1999.90;999.90;;;;;;;;;;5004517;28;20211;-79
2023/07/03 08:13:25;;;;;;;1999.90;999.90;;;;;;;;;;5003033;28;20235;-77
2023/07/03 08:16:12;;;;;;;1999.90;999.90;;;;;;;;;;5001848;28;20606;-80
2023/07/03 08:18:58;;;;;;;1999.90;999.90;;;;;;;;;;5006393;28;20218;-77
2023/07/03 08:21:43;;;;;;;1999.90;999.90;;;;;;;;;;5009661;28;20211;-79
2023/07/03 08:24:28;;;;;;;1999.90;999.90;;;;;;;;;;5007322;28;20947;-79
2023/07/03 08:27:13;;;;;;;1999.90;999.90;;;;;;;;;;5001840;28;20223;-77
2023/07/03 08:29:57;;;;;;;1999.90;999.90;;;;;;;;;;5010199;28;20220;-79
2023/07/03 08:32:43;;;;;;;1999.90;999.90;;;;;;;;;;5006706;28;20240;-77
2023/07/03 08:35:29;;;;;;;1999.90;999.90;;;;;;;;;;5007060;28;20584;-79
2023/07/03 08:38:14;;;;;;;1999.90;999.90;;;;;;;;;;5006719;28;20206;-79
2023/07/03 08:40:59;;;;;;;1999.90;999.90;;;;;;;;;;5008155;28;20699;-77
2023/07/03 08:43:46;;;;;;;1999.90;999.90;;;;;;;;;;5007623;28;20226;-80
2023/07/03 08:46:32;;;;;;;1999.90;999.90;;;;;;;;;;5003417;28;20211;-78
2023/07/03 08:49:19;;;;;;;1999.90;999.90;;;;;;;;;;5005399;28;20213;-79
2023/07/03 08:52:07;;;;;;;1999.90;999.90;;;;;;;;;;5004130;28;20214;-78
2023/07/03 08:54:53;;;;;;;1999.90;999.90;;;;;;;;;;5007725;28;20218;-77
2023/07/03 08:57:39;;;;;;;1999.90;999.90;;;;;;;;;;5003486;28;20272;-77
2023/07/03 09:00:24;;;;;;;1999.90;999.90;;;;;;;;;;4998464;28;20406;-78
2023/07/03 09:03:11;;;;;;;1999.90;999.90;;;;;;;;;;5004326;28;20594;-77
2023/07/03 09:06:01;;;;;;;1999.90;999.90;;;;;;;;;;5002627;28;20208;-78
2023/07/03 09:08:54;;;;;;;1999.90;999.90;;;;;;;;;;5001069;28;20261;-77
2023/07/03 09:11:42;;;;;;;1999.90;999.90;;;;;;;;;;5002886;28;20581;-77
2023/07/03 09:14:29;;;;;;;1999.90;999.90;;;;;;;;;;5006861;28;20233;-78
2023/07/03 09:17:14;;;;;;;1999.90;999.90;;;;;;;;;;5013747;28;20275;-77
2023/07/03 09:20:00;;;;;;;1999.90;999.90;;;;;;;;;;5013530;28;20407;-76
2023/07/03 09:22:47;;;;;;;1999.90;999.90;;;;;;;;;;5004804;28;20584;-78
2023/07/03 09:25:38;;;;;;;1999.90;999.90;;;;;;;;;;5008683;28;20226;-79
2023/07/03 09:28:23;;;;;;;1999.90;999.90;;;;;;;;;;5009741;28;20202;-76
2023/07/03 09:31:08;;;;;;;1999.90;999.90;;;;;;;;;;5000737;28;20206;-78
2023/07/03 09:33:53;;;;;;;1999.90;999.90;;;;;;;;;;5001258;28;20231;-78
2023/07/03 09:36:41;;;;;;;1999.90;999.90;;;;;;;;;;5008015;28;20718;-79
2023/07/03 09:39:27;;;;;;;1999.90;999.90;;;;;;;;;;5002275;28;20589;-77
2023/07/03 09:42:15;;;;;;;1999.90;999.90;;;;;;;;;;5006565;28;20730;-78
2023/07/03 09:45:00;;;;;;;1999.90;999.90;;;;;;;;;;5010699;28;20211;-77
2023/07/03 09:47:48;;;;;;;1999.90;999.90;;;;;;;;;;5012584;28;20705;-77
2023/07/03 09:50:35;;;;;;;1999.90;999.90;;;;;;;;;;5014639;28;20215;-77
2023/07/03 09:53:21;;;;;;;1999.90;999.90;;;;;;;;;;5006528;28;20239;-75
2023/07/03 09:56:11;;;;;;;1999.90;999.90;;;;;;;;;;4995557;28;20211;-78
2023/07/03 09:59:01;;;;;;;1999.90;999.90;;;;;;;;;;5002550;28;20202;-77
2023/07/03 10:01:46;;;;;;;1999.90;999.90;;;;;;;;;;5004499;28;20226;-75
2023/07/03 10:04:32;;;;;;;1999.90;999.90;;;;;;;;;;5009406;28;20597;-79
2023/07/03 10:07:17;;;;;;;1999.90;999.90;;;;;;;;;;5008519;28;20340;-79
2023/07/03 10:10:02;;;;;;;1999.90;999.90;;;;;;;;;;5014176;28;20310;-80
2023/07/03 10:12:51;;;;;;;1999.90;999.90;;;;;;;;;;5012477;28;20242;-77
2023/07/03 10:15:40;;;;;;;1999.90;999.90;;;;;;;;;;5009672;28;20439;-76
2023/07/03 10:18:26;;;;;;;1999.90;999.90;;;;;;;;;;5010093;28;20688;-77
2023/07/03 10:21:13;;;;;;;1999.90;999.90;;;;;;;;;;5014147;28;20798;-78
2023/07/03 10:23:59;;;;;;;1999.90;999.90;;;;;;;;;;5013142;28;20736;-78
2023/07/03 10:26:47;;;;;;;1999.90;999.90;;;;;;;;;;5006166;28;20222;-78
2023/07/03 10:29:37;;;;;;;1999.90;999.90;;;;;;;;;;5014765;28;20214;-78
2023/07/03 10:32:25;;;;;;;1999.90;999.90;;;;;;;;;;5010958;28;20618;-78
2023/07/03 10:35:11;;;;;;;1999.90;999.90;;;;;;;;;;5002217;28;20323;-76
2023/07/03 10:37:59;;;;;;;1999.90;999.90;;;;;;;;;;4994371;28;20207;-76
2023/07/03 10:40:51;;;;;;;1999.90;999.90;;;;;;;;;;4994197;28;20358;-77
2023/07/03 10:43:39;;;;;;;1999.90;999.90;;;;;;;;;;5012724;28;20785;-77
2023/07/03 10:46:27;;;;;;;1999.90;999.90;;;;;;;;;;5013034;28;20628;-77
2023/07/03 10:49:18;;;;;;;1999.90;999.90;;;;;;;;;;5005784;28;20680;-77
2023/07/03 10:52:10;;;;;;;1999.90;999.90;;;;;;;;;;5008957;28;20416;-77
2023/07/03 10:54:57;;;;;;;1999.90;999.90;;;;;;;;;;5011075;28;20191;-77
2023/07/03 10:57:46;;;;;;;1999.90;999.90;;;;;;;;;;4999452;28;20280;-77
2023/07/03 11:00:34;;;;;;;1999.90;999.90;;;;;;;;;;5001497;28;20588;-77
2023/07/03 11:03:23;;;;;;;1999.90;999.90;;;;;;;;;;5011304;28;20273;-77
2023/07/03 11:06:12;;;;;;;1999.90;999.90;;;;;;;;;;5007278;28;20569;-78
2023/07/03 11:09:00;;;;;;;1999.90;999.90;;;;;;;;;;5013359;28;20331;-76
2023/07/03 11:11:48;;;;;;;1999.90;999.90;;;;;;;;;;5000371;28;20478;-77
2023/07/03 11:14:40;;;;;;;1999.90;999.90;;;;;;;;;;5007791;28;20565;-77
2023/07/03 11:17:30;;;;;;;1999.90;999.90;;;;;;;;;;5005212;28;20203;-77
2023/07/03 11:20:16;;;;;;;1999.90;999.90;;;;;;;;;;4998429;28;20214;-77
2023/07/03 11:23:06;;;;;;;1999.90;999.90;;;;;;;;;;5001868;28;20754;-76
2023/07/03 11:25:54;;;;;;;1999.90;999.90;;;;;;;;;;5006939;28;20201;-77
2023/07/03 11:28:40;;;;;;;1999.90;999.90;;;;;;;;;;4999210;28;20602;-78
2023/07/03 11:31:26;;;;;;;1999.90;999.90;;;;;;;;;;5004873;28;20735;-78
2023/07/03 11:34:12;;;;;;;1999.90;999.90;;;;;;;;;;4996296;28;20282;-78
2023/07/03 11:36:57;;;;;;;1999.90;999.90;;;;;;;;;;5009993;28;20219;-78
2023/07/03 11:39:49;;;;;;;1999.90;999.90;;;;;;;;;;5001524;28;20206;-78
2023/07/03 11:42:34;;;;;;;1999.90;999.90;;;;;;;;;;4997089;28;20230;-75
2023/07/03 11:45:25;;;;;;;1999.90;999.90;;;;;;;;;;4997665;28;20211;-78
2023/07/03 11:48:18;;;;;;;1999.90;999.90;;;;;;;;;;5005493;28;20674;-77
2023/07/03 11:51:04;;;;;;;1999.90;999.90;;;;;;;;;;4997301;28;20765;-80
2023/07/03 11:53:52;;;;;;;1999.90;999.90;;;;;;;;;;5002429;28;20307;-80
2023/07/03 11:56:49;;;;;;;1999.90;999.90;;;;;;;;;;5000989;28;20225;-76
2023/07/03 11:59:39;;;;;;;1999.90;999.90;;;;;;;;;;5001845;28;20350;-78
2023/07/03 12:02:45;;;;;;;1999.90;999.90;;;;;;;;;;4995693;28;20298;-77
2023/07/03 12:05:49;;;;;;;1999.90;999.90;;;;;;;;;;4995911;28;20231;-79
2023/07/03 12:08:41;;;;;;;1999.90;999.90;;;;;;;;;;4997964;28;20495;-80
2023/07/03 12:11:27;;;;;;;1999.90;999.90;;;;;;;;;;5000777;28;20214;-77
2023/07/03 12:14:33;;;;;;;1999.90;999.90;;;;;;;;;;4997157;28;20230;-76
2023/07/03 12:17:18;;;;;;;1999.90;999.90;;;;;;;;;;5004671;28;20210;-78
2023/07/03 12:20:06;;;;;;;1999.90;999.90;;;;;;;;;;4993533;28;20214;-77
2023/07/03 12:22:51;;;;;;;1999.90;999.90;;;;;;;;;;5001968;28;20247;-77
2023/07/03 12:25:37;;;;;;;1999.90;999.90;;;;;;;;;;4996621;28;20737;-82
2023/07/03 12:28:21;;;;;;;1999.90;999.90;;;;;;;;;;5000981;28;20202;-78
2023/07/03 12:31:19;;;;;;;1999.90;999.90;;;;;;;;;;4993872;28;20215;-78
2023/07/03 12:34:05;;;;;;;1999.90;999.90;;;;;;;;;;4993074;28;20743;-78
2023/07/03 12:36:50;;;;;;;1999.90;999.90;;;;;;;;;;4999246;28;20214;-77
2023/07/03 12:39:35;;;;;;;1999.90;999.90;;;;;;;;;;5004419;28;20215;-77
2023/07/03 12:42:22;;;;;;;1999.90;999.90;;;;;;;;;;4999838;28;20212;-78
2023/07/03 12:45:11;;;;;;;1999.90;999.90;;;;;;;;;;5003808;28;20404;-77
2023/07/03 12:48:01;;;;;;;1999.90;999.90;;;;;;;;;;5004680;28;20223;-78
2023/07/03 12:50:48;;;;;;;1999.90;999.90;;;;;;;;;;5007787;28;20230;-78
2023/07/03 12:53:34;;;;;;;1999.90;999.90;;;;;;;;;;4999241;28;20235;-78
2023/07/03 12:56:19;;;;;;;1999.90;999.90;;;;;;;;;;5003409;28;20233;-77
2023/07/03 12:59:05;;;;;;;1999.90;999.90;;;;;;;;;;4998542;28;20335;-77
2023/07/03 13:01:51;;;;;;;1999.90;999.90;;;;;;;;;;5007452;28;20207;-77
2023/07/03 13:04:38;;;;;;;1999.90;999.90;;;;;;;;;;5006471;28;20436;-78
2023/07/03 13:07:24;;;;;;;1999.90;999.90;;;;;;;;;;5001086;28;20215;-77
2023/07/03 13:10:14;;;;;;;1999.90;999.90;;;;;;;;;;4998848;28;20302;-78
2023/07/03 13:13:06;;;;;;;1999.90;999.90;;;;;;;;;;5005954;28;20231;-76
2023/07/03 13:15:51;;;;;;;1999.90;999.90;;;;;;;;;;5001751;28;20623;-79
2023/07/03 13:18:36;;;;;;;1999.90;999.90;;;;;;;;;;4995270;28;20210;-78
2023/07/03 13:21:23;;;;;;;1999.90;999.90;;;;;;;;;;5003993;28;20330;-76
2023/07/03 13:24:09;;;;;;;1999.90;999.90;;;;;;;;;;5003010;28;20251;-76
2023/07/03 13:26:55;;;;;;;1999.90;999.90;;;;;;;;;;5003206;28;20266;-78
2023/07/03 13:29:40;;;;;;;1999.90;999.90;;;;;;;;;;5003536;28;20863;-76
2023/07/03 13:32:25;;;;;;;1999.90;999.90;;;;;;;;;;5002646;28;20288;-78
2023/07/03 13:35:10;;;;;;;1999.90;999.90;;;;;;;;;;4998296;28;20235;-80
2023/07/03 13:38:10;;;;;;;1999.90;999.90;;;;;;;;;;5009793;28;20690;-77
2023/07/03 13:40:56;;;;;;;1999.90;999.90;;;;;;;;;;5004262;28;20212;-79
2023/07/03 13:43:41;;;;;;;1999.90;999.90;;;;;;;;;;5004533;28;20741;-78
2023/07/03 13:46:27;;;;;;;1999.90;999.90;;;;;;;;;;5001567;28;20268;-77
2023/07/03 13:49:13;;;;;;;1999.90;999.90;;;;;;;;;;5003475;28;20336;-77
2023/07/03 13:51:58;;;;;;;1999.90;999.90;;;;;;;;;;5009329;28;20219;-77
2023/07/03 13:54:44;;;;;;;1999.90;999.90;;;;;;;;;;5004612;28;20310;-75
2023/07/03 13:57:29;;;;;;;1999.90;999.90;;;;;;;;;;5004318;28;20709;-77
2023/07/03 14:00:15;;;;;;;1999.90;999.90;;;;;;;;;;5004437;28;20220;-77
2023/07/03 14:03:00;;;;;;;1999.90;999.90;;;;;;;;;;5007265;28;20231;-77
2023/07/03 14:05:45;;;;;;;1999.90;999.90;;;;;;;;;;5007338;28;20225;-77
2023/07/03 14:08:30;;;;;;;1999.90;999.90;;;;;;;;;;5000925;28;20202;-78
2023/07/03 14:11:17;;;;;;;1999.90;999.90;;;;;;;;;;5003474;28;20196;-76
2023/07/03 14:14:02;;;;;;;1999.90;999.90;;;;;;;;;;5002338;28;20305;-79
2023/07/03 14:16:48;;;;;;;1999.90;999.90;;;;;;;;;;5002790;28;20224;-79
2023/07/03 14:19:33;;;;;;;1999.90;999.90;;;;;;;;;;5002063;28;20207;-80
2023/07/03 14:22:19;;;;;;;1999.90;999.90;;;;;;;;;;5008136;28;20272;-78
2023/07/03 14:25:04;;;;;;;1999.90;999.90;;;;;;;;;;4998145;28;20203;-76
2023/07/03 14:27:51;;;;;;;1999.90;999.90;;;;;;;;;;5006062;28;20699;-82
2023/07/03 14:30:36;;;;;;;1999.90;999.90;;;;;;;;;;5001211;28;20589;-78
2023/07/03 14:33:21;;;;;;;1999.90;999.90;;;;;;;;;;5000825;28;20250;-78
2023/07/03 14:36:06;;;;;;;1999.90;999.90;;;;;;;;;;4997795;28;20223;-79
2023/07/03 14:38:51;;;;;;;1999.90;999.90;;;;;;;;;;5003771;28;20742;-77
2023/07/03 14:41:35;;;;;;;1999.90;999.90;;;;;;;;;;5002535;28;20370;-76
2023/07/03 14:44:22;;;;;;;1999.90;999.90;;;;;;;;;;5004362;28;20230;-77
2023/07/03 14:47:07;;;;;;;1999.90;999.90;;;;;;;;;;5002013;28;20698;-77
2023/07/03 14:49:52;;;;;;;1999.90;999.90;;;;;;;;;;5004514;28;20311;-78
2023/07/03 14:52:37;;;;;;;1999.90;999.90;;;;;;;;;;5000777;28;20279;-77
2023/07/03 14:55:23;;;;;;;1999.90;999.90;;;;;;;;;;4993529;28;20219;-78
2023/07/03 14:58:08;;;;;;;1999.90;999.90;;;;;;;;;;5004509;28;20966;-78
2023/07/03 15:00:59;;;;;;;1999.90;999.90;;;;;;;;;;4999115;28;20276;-81
2023/07/03 15:03:45;;;;;;;1999.90;999.90;;;;;;;;;;5002032;28;20274;-81
2023/07/03 15:06:30;;;;;;;1999.90;999.90;;;;;;;;;;5002067;28;20706;-77
2023/07/03 15:09:15;;;;;;;1999.90;999.90;;;;;;;;;;5001512;28;20223;-77
2023/07/03 15:12:00;;;;;;;1999.90;999.90;;;;;;;;;;5003312;28;20670;-76
2023/07/03 15:14:45;;;;;;;1999.90;999.90;;;;;;;;;;5004099;28;20242;-79
2023/07/03 15:17:32;;;;;;;1999.90;999.90;;;;;;;;;;5000620;28;20274;-78
2023/07/03 15:20:16;;;;;;;1999.90;999.90;;;;;;;;;;5002237;28;20703;-80
2023/07/03 15:23:01;;;;;;;1999.90;999.90;;;;;;;;;;5001044;28;20354;-79
2023/07/03 15:25:46;;;;;;;1999.90;999.90;;;;;;;;;;4998555;28;20498;-79
2023/07/03 15:28:31;;;;;;;1999.90;999.90;;;;;;;;;;5003190;28;20211;-78
2023/07/03 15:31:16;;;;;;;1999.90;999.90;;;;;;;;;;4994107;28;20691;-77
2023/07/03 15:34:03;;;;;;;1999.90;999.90;;;;;;;;;;5002283;28;20376;-77
2023/07/03 15:36:48;;;;;;;1999.90;999.90;;;;;;;;;;4999948;28;20218;-77
2023/07/03 15:39:33;;;;;;;1999.90;999.90;;;;;;;;;;5003328;28;20590;-80
2023/07/03 15:42:17;;;;;;;1999.90;999.90;;;;;;;;;;5001055;28;20731;-77
2023/07/03 15:45:02;;;;;;;1999.90;999.90;;;;;;;;;;4996851;28;20447;-78
2023/07/03 15:47:48;;;;;;;1999.90;999.90;;;;;;;;;;5003140;28;20696;-77
2023/07/03 15:50:35;;;;;;;1999.90;999.90;;;;;;;;;;5003783;28;20257;-81
2023/07/03 15:53:19;;;;;;;1999.90;999.90;;;;;;;;;;5002713;28;20290;-79
2023/07/03 15:56:05;;;;;;;1999.90;999.90;;;;;;;;;;5005244;28;20285;-77
2023/07/03 15:58:51;;;;;;;1999.90;999.90;;;;;;;;;;4998478;28;20215;-78
2023/07/03 16:01:37;;;;;;;1999.90;999.90;;;;;;;;;;4993818;28;20754;-77
2023/07/03 16:04:22;;;;;;;1999.90;999.90;;;;;;;;;;5001246;28;20761;-78
2023/07/03 16:07:08;;;;;;;1999.90;999.90;;;;;;;;;;5000085;28;20193;-77
2023/07/03 16:09:53;;;;;;;1999.90;999.90;;;;;;;;;;5002871;28;20432;-76
2023/07/03 16:12:38;;;;;;;1999.90;999.90;;;;;;;;;;4994095;28;20301;-79
2023/07/03 16:15:23;;;;;;;1999.90;999.90;;;;;;;;;;5000009;28;20342;-77
2023/07/03 16:18:08;;;;;;;1999.90;999.90;;;;;;;;;;5001120;28;20231;-79
2023/07/03 16:20:55;;;;;;;1999.90;999.90;;;;;;;;;;5003236;28;20439;-76